sensor_id;sensor_type;location;lat;lon;timestamp;P1;durP1;ratioP1;P2;durP2;ratioP2
10232;SDS011;5161;48.174;11.756;2023-02-15T00:01:56;40.20;;;11.90;;
10232;SDS011;5161;48.174;11.756;2023-02-15T00:04:23;19.17;;;12.30;;
10232;SDS011;5161;48.174;11.756;2023-02-15T00:07:10;16.40;;;12.33;;
10232;SDS011;5161;48.174;11.756;2023-02-15T00:09:35;15.80;;;11.47;;
10232;SDS011;5161;48.174;11.756;2023-02-15T00:12:01;21.10;;;12.33;;
10232;SDS011;5161;48.174;11.756;2023-02-15T00:14:30;19.20;;;12.43;;
10232;SDS011;5161;48.174;11.756;2023-02-15T00:16:58;21.97;;;12.27;;
10232;SDS011;5161;48.174;11.756;2023-02-15T00:19:27;14.13;;;11.87;;
10232;SDS011;5161;48.174;11.756;2023-02-15T00:21:52;31.47;;;11.97;;
10232;SDS011;5161;48.174;11.756;2023-02-15T00:24:18;39.60;;;12.53;;
10232;SDS011;5161;48.174;11.756;2023-02-15T00:26:47;21.40;;;12.00;;
10232;SDS011;5161;48.174;11.756;2023-02-15T00:29:16;151.70;;;14.77;;
10232;SDS011;5161;48.174;11.756;2023-02-15T00:31:46;22.63;;;12.20;;
10232;SDS011;5161;48.174;11.756;2023-02-15T00:34:22;25.10;;;12.33;;
10232;SDS011;5161;48.174;11.756;2023-02-15T00:36:49;15.70;;;12.10;;
10232;SDS011;5161;48.174;11.756;2023-02-15T00:39:15;18.10;;;12.17;;
10232;SDS011;5161;48.174;11.756;2023-02-15T00:41:42;53.13;;;13.27;;
10232;SDS011;5161;48.174;11.756;2023-02-15T00:44:08;14.67;;;12.13;;
10232;SDS011;5161;48.174;11.756;2023-02-15T00:46:34;53.60;;;12.33;;
10232;SDS011;5161;48.174;11.756;2023-02-15T00:49:01;24.97;;;11.43;;
10232;SDS011;5161;48.174;11.756;2023-02-15T00:51:27;82.27;;;13.13;;
10232;SDS011;5161;48.174;11.756;2023-02-15T00:53:53;16.87;;;11.77;;
10232;SDS011;5161;48.174;11.756;2023-02-15T00:56:18;79.20;;;13.00;;
10232;SDS011;5161;48.174;11.756;2023-02-15T00:58:44;15.87;;;11.97;;
10232;SDS011;5161;48.174;11.756;2023-02-15T01:01:12;29.33;;;11.80;;
10232;SDS011;5161;48.174;11.756;2023-02-15T01:03:39;23.47;;;11.57;;
10232;SDS011;5161;48.174;11.756;2023-02-15T01:06:06;14.13;;;11.60;;
10232;SDS011;5161;48.174;11.756;2023-02-15T01:08:34;128.30;;;13.50;;
10232;SDS011;5161;48.174;11.756;2023-02-15T01:11:05;18.60;;;11.40;;
10232;SDS011;5161;48.174;11.756;2023-02-15T01:13:32;28.03;;;12.07;;
10232;SDS011;5161;48.174;11.756;2023-02-15T01:15:58;23.70;;;11.90;;
10232;SDS011;5161;48.174;11.756;2023-02-15T01:18:23;18.07;;;11.13;;
10232;SDS011;5161;48.174;11.756;2023-02-15T01:20:49;32.97;;;12.07;;
10232;SDS011;5161;48.174;11.756;2023-02-15T01:23:15;22.40;;;11.63;;
10232;SDS011;5161;48.174;11.756;2023-02-15T01:25:40;29.87;;;11.57;;
10232;SDS011;5161;48.174;11.756;2023-02-15T01:28:06;16.83;;;11.27;;
10232;SDS011;5161;48.174;11.756;2023-02-15T01:30:32;43.53;;;12.23;;
10232;SDS011;5161;48.174;11.756;2023-02-15T01:32:58;24.40;;;11.20;;
10232;SDS011;5161;48.174;11.756;2023-02-15T01:35:25;20.17;;;11.53;;
10232;SDS011;5161;48.174;11.756;2023-02-15T01:37:52;15.17;;;11.83;;
10232;SDS011;5161;48.174;11.756;2023-02-15T01:40:17;14.73;;;12.33;;
10232;SDS011;5161;48.174;11.756;2023-02-15T01:42:44;14.67;;;11.73;;
10232;SDS011;5161;48.174;11.756;2023-02-15T01:50:25;22.47;;;11.83;;
10232;SDS011;5161;48.174;11.756;2023-02-15T01:55:29;28.50;;;13.03;;
10232;SDS011;5161;48.174;11.756;2023-02-15T01:57:59;65.63;;;13.60;;
10232;SDS011;5161;48.174;11.756;2023-02-15T02:00:25;16.40;;;11.63;;
10232;SDS011;5161;48.174;11.756;2023-02-15T02:02:52;31.77;;;12.73;;
10232;SDS011;5161;48.174;11.756;2023-02-15T02:05:19;19.90;;;12.40;;
10232;SDS011;5161;48.174;11.756;2023-02-15T02:07:45;40.57;;;12.57;;
10232;SDS011;5161;48.174;11.756;2023-02-15T02:10:14;23.60;;;12.80;;
10232;SDS011;5161;48.174;11.756;2023-02-15T02:12:42;24.17;;;12.60;;
10232;SDS011;5161;48.174;11.756;2023-02-15T02:15:10;15.43;;;12.77;;
10232;SDS011;5161;48.174;11.756;2023-02-15T02:20:48;30.13;;;12.87;;
10232;SDS011;5161;48.174;11.756;2023-02-15T02:23:39;17.50;;;13.60;;
10232;SDS011;5161;48.174;11.756;2023-02-15T02:29:05;20.93;;;13.00;;
10232;SDS011;5161;48.174;11.756;2023-02-15T02:42:13;40.03;;;13.37;;
10232;SDS011;5161;48.174;11.756;2023-02-15T02:45:08;17.07;;;12.70;;
10232;SDS011;5161;48.174;11.756;2023-02-15T02:50:24;24.90;;;12.80;;
10232;SDS011;5161;48.174;11.756;2023-02-15T02:52:53;19.43;;;13.10;;
10232;SDS011;5161;48.174;11.756;2023-02-15T02:55:22;16.73;;;13.00;;
10232;SDS011;5161;48.174;11.756;2023-02-15T02:58:02;16.33;;;12.80;;
10232;SDS011;5161;48.174;11.756;2023-02-15T03:05:57;19.87;;;13.23;;
10232;SDS011;5161;48.174;11.756;2023-02-15T03:08:27;17.30;;;13.63;;
10232;SDS011;5161;48.174;11.756;2023-02-15T03:11:01;17.00;;;13.13;;
10232;SDS011;5161;48.174;11.756;2023-02-15T03:13:30;17.30;;;12.83;;
10232;SDS011;5161;48.174;11.756;2023-02-15T03:15:56;15.90;;;12.47;;
10232;SDS011;5161;48.174;11.756;2023-02-15T03:18:53;16.90;;;13.30;;
10232;SDS011;5161;48.174;11.756;2023-02-15T03:24:14;16.73;;;12.57;;
10232;SDS011;5161;48.174;11.756;2023-02-15T03:26:45;21.67;;;13.30;;
10232;SDS011;5161;48.174;11.756;2023-02-15T03:29:12;25.77;;;13.17;;
10232;SDS011;5161;48.174;11.756;2023-02-15T03:31:41;22.60;;;14.03;;
10232;SDS011;5161;48.174;11.756;2023-02-15T03:34:11;17.97;;;13.23;;
10232;SDS011;5161;48.174;11.756;2023-02-15T03:36:46;18.17;;;14.07;;
10232;SDS011;5161;48.174;11.756;2023-02-15T03:39:20;22.33;;;13.17;;
10232;SDS011;5161;48.174;11.756;2023-02-15T03:42:00;43.33;;;14.57;;
10232;SDS011;5161;48.174;11.756;2023-02-15T03:45:09;74.97;;;15.10;;
10232;SDS011;5161;48.174;11.756;2023-02-15T03:47:34;98.83;;;15.80;;
10232;SDS011;5161;48.174;11.756;2023-02-15T03:50:05;32.20;;;14.23;;
10232;SDS011;5161;48.174;11.756;2023-02-15T03:53:05;17.23;;;12.93;;
10232;SDS011;5161;48.174;11.756;2023-02-15T03:55:34;16.23;;;12.80;;
10232;SDS011;5161;48.174;11.756;2023-02-15T03:58:00;22.27;;;13.43;;
10232;SDS011;5161;48.174;11.756;2023-02-15T04:00:55;17.77;;;12.80;;
10232;SDS011;5161;48.174;11.756;2023-02-15T04:03:44;23.47;;;13.10;;
10232;SDS011;5161;48.174;11.756;2023-02-15T04:06:14;44.43;;;13.90;;
10232;SDS011;5161;48.174;11.756;2023-02-15T04:08:40;17.33;;;13.30;;
10232;SDS011;5161;48.174;11.756;2023-02-15T04:11:24;17.80;;;13.43;;
10232;SDS011;5161;48.174;11.756;2023-02-15T04:13:50;50.67;;;13.83;;
10232;SDS011;5161;48.174;11.756;2023-02-15T04:16:21;16.10;;;12.77;;
10232;SDS011;5161;48.174;11.756;2023-02-15T04:18:50;17.00;;;13.20;;
10232;SDS011;5161;48.174;11.756;2023-02-15T04:21:35;17.00;;;12.83;;
10232;SDS011;5161;48.174;11.756;2023-02-15T04:24:19;16.63;;;12.57;;
10232;SDS011;5161;48.174;11.756;2023-02-15T04:27:04;18.03;;;12.87;;
10232;SDS011;5161;48.174;11.756;2023-02-15T04:29:30;17.00;;;13.20;;
10232;SDS011;5161;48.174;11.756;2023-02-15T04:31:56;18.33;;;13.73;;
10232;SDS011;5161;48.174;11.756;2023-02-15T04:34:24;19.23;;;14.10;;
10232;SDS011;5161;48.174;11.756;2023-02-15T04:36:49;23.77;;;13.50;;
10232;SDS011;5161;48.174;11.756;2023-02-15T04:39:16;18.67;;;13.70;;
10232;SDS011;5161;48.174;11.756;2023-02-15T04:41:42;19.97;;;13.50;;
10232;SDS011;5161;48.174;11.756;2023-02-15T04:44:09;18.63;;;13.07;;
10232;SDS011;5161;48.174;11.756;2023-02-15T04:46:35;23.03;;;13.63;;
10232;SDS011;5161;48.174;11.756;2023-02-15T04:49:01;23.40;;;13.63;;
10232;SDS011;5161;48.174;11.756;2023-02-15T04:51:27;75.90;;;14.90;;
10232;SDS011;5161;48.174;11.756;2023-02-15T04:53:53;17.97;;;14.03;;
10232;SDS011;5161;48.174;11.756;2023-02-15T04:56:19;23.93;;;13.43;;
10232;SDS011;5161;48.174;11.756;2023-02-15T04:58:45;109.03;;;14.87;;
10232;SDS011;5161;48.174;11.756;2023-02-15T05:01:11;31.47;;;12.63;;
10232;SDS011;5161;48.174;11.756;2023-02-15T05:03:36;20.67;;;12.73;;
10232;SDS011;5161;48.174;11.756;2023-02-15T05:06:02;51.67;;;13.20;;
10232;SDS011;5161;48.174;11.756;2023-02-15T05:08:28;22.17;;;11.73;;
10232;SDS011;5161;48.174;11.756;2023-02-15T05:10:54;17.50;;;12.03;;
10232;SDS011;5161;48.174;11.756;2023-02-15T05:13:19;19.37;;;12.50;;
10232;SDS011;5161;48.174;11.756;2023-02-15T05:15:48;29.27;;;12.03;;
10232;SDS011;5161;48.174;11.756;2023-02-15T05:18:16;65.67;;;12.30;;
10232;SDS011;5161;48.174;11.756;2023-02-15T05:20:42;14.20;;;11.47;;
10232;SDS011;5161;48.174;11.756;2023-02-15T05:23:07;15.47;;;10.53;;
10232;SDS011;5161;48.174;11.756;2023-02-15T05:25:33;23.63;;;11.33;;
10232;SDS011;5161;48.174;11.756;2023-02-15T05:28:17;33.57;;;12.13;;
10232;SDS011;5161;48.174;11.756;2023-02-15T05:33:37;13.80;;;11.40;;
10232;SDS011;5161;48.174;11.756;2023-02-15T05:36:03;15.93;;;10.53;;
10232;SDS011;5161;48.174;11.756;2023-02-15T05:38:30;28.23;;;11.17;;
10232;SDS011;5161;48.174;11.756;2023-02-15T05:40:56;22.57;;;11.50;;
10232;SDS011;5161;48.174;11.756;2023-02-15T05:43:22;35.73;;;11.27;;
10232;SDS011;5161;48.174;11.756;2023-02-15T05:45:48;31.77;;;11.27;;
10232;SDS011;5161;48.174;11.756;2023-02-15T05:48:16;49.90;;;11.50;;
10232;SDS011;5161;48.174;11.756;2023-02-15T05:50:42;14.83;;;11.03;;
10232;SDS011;5161;48.174;11.756;2023-02-15T05:53:08;32.40;;;11.90;;
10232;SDS011;5161;48.174;11.756;2023-02-15T05:55:33;13.90;;;11.20;;
10232;SDS011;5161;48.174;11.756;2023-02-15T05:58:01;14.07;;;11.33;;
10232;SDS011;5161;48.174;11.756;2023-02-15T06:00:27;18.67;;;10.57;;
10232;SDS011;5161;48.174;11.756;2023-02-15T06:02:53;24.67;;;11.00;;
10232;SDS011;5161;48.174;11.756;2023-02-15T06:05:18;12.30;;;10.00;;
10232;SDS011;5161;48.174;11.756;2023-02-15T06:07:44;13.27;;;10.13;;
10232;SDS011;5161;48.174;11.756;2023-02-15T06:10:10;14.50;;;10.97;;
10232;SDS011;5161;48.174;11.756;2023-02-15T06:12:39;19.00;;;10.67;;
10232;SDS011;5161;48.174;11.756;2023-02-15T06:15:05;12.93;;;10.57;;
10232;SDS011;5161;48.174;11.756;2023-02-15T06:17:31;17.37;;;11.40;;
10232;SDS011;5161;48.174;11.756;2023-02-15T06:19:56;13.73;;;10.93;;
10232;SDS011;5161;48.174;11.756;2023-02-15T06:22:22;31.47;;;10.97;;
10232;SDS011;5161;48.174;11.756;2023-02-15T06:24:47;25.83;;;11.00;;
10232;SDS011;5161;48.174;11.756;2023-02-15T06:27:13;15.10;;;11.03;;
10232;SDS011;5161;48.174;11.756;2023-02-15T06:29:39;59.57;;;11.10;;
10232;SDS011;5161;48.174;11.756;2023-02-15T06:32:04;14.43;;;10.30;;
10232;SDS011;5161;48.174;11.756;2023-02-15T06:34:30;21.00;;;10.80;;
10232;SDS011;5161;48.174;11.756;2023-02-15T06:36:56;66.83;;;11.97;;
10232;SDS011;5161;48.174;11.756;2023-02-15T06:39:22;24.63;;;10.47;;
10232;SDS011;5161;48.174;11.756;2023-02-15T06:42:01;51.67;;;10.93;;
10232;SDS011;5161;48.174;11.756;2023-02-15T06:44:27;15.40;;;10.90;;
10232;SDS011;5161;48.174;11.756;2023-02-15T06:46:52;17.53;;;11.57;;
10232;SDS011;5161;48.174;11.756;2023-02-15T06:49:18;15.00;;;11.30;;
10232;SDS011;5161;48.174;11.756;2023-02-15T06:51:43;18.87;;;11.17;;
10232;SDS011;5161;48.174;11.756;2023-02-15T06:54:09;14.67;;;11.03;;
10232;SDS011;5161;48.174;11.756;2023-02-15T06:56:34;60.27;;;11.97;;
10232;SDS011;5161;48.174;11.756;2023-02-15T06:59:00;13.77;;;10.90;;
10232;SDS011;5161;48.174;11.756;2023-02-15T07:01:26;17.90;;;11.57;;
10232;SDS011;5161;48.174;11.756;2023-02-15T07:03:51;13.43;;;11.00;;
10232;SDS011;5161;48.174;11.756;2023-02-15T07:06:17;17.73;;;11.30;;
10232;SDS011;5161;48.174;11.756;2023-02-15T07:08:43;15.17;;;11.47;;
10232;SDS011;5161;48.174;11.756;2023-02-15T07:11:08;16.00;;;11.67;;
10232;SDS011;5161;48.174;11.756;2023-02-15T07:13:52;16.27;;;11.10;;
10232;SDS011;5161;48.174;11.756;2023-02-15T07:16:18;14.83;;;11.40;;
10232;SDS011;5161;48.174;11.756;2023-02-15T07:18:44;15.03;;;11.53;;
10232;SDS011;5161;48.174;11.756;2023-02-15T07:21:09;14.83;;;11.40;;
10232;SDS011;5161;48.174;11.756;2023-02-15T07:23:36;13.90;;;11.37;;
10232;SDS011;5161;48.174;11.756;2023-02-15T07:26:02;14.03;;;11.20;;
10232;SDS011;5161;48.174;11.756;2023-02-15T07:28:29;15.27;;;11.07;;
10232;SDS011;5161;48.174;11.756;2023-02-15T07:30:55;17.03;;;11.47;;
10232;SDS011;5161;48.174;11.756;2023-02-15T07:33:22;16.20;;;12.03;;
10232;SDS011;5161;48.174;11.756;2023-02-15T07:35:49;13.93;;;11.47;;
10232;SDS011;5161;48.174;11.756;2023-02-15T07:38:16;27.50;;;11.97;;
10232;SDS011;5161;48.174;11.756;2023-02-15T07:40:43;17.00;;;12.03;;
10232;SDS011;5161;48.174;11.756;2023-02-15T07:43:09;41.23;;;12.80;;
10232;SDS011;5161;48.174;11.756;2023-02-15T07:45:35;18.93;;;11.80;;
10232;SDS011;5161;48.174;11.756;2023-02-15T07:48:02;14.20;;;11.63;;
10232;SDS011;5161;48.174;11.756;2023-02-15T07:50:28;15.63;;;11.47;;
10232;SDS011;5161;48.174;11.756;2023-02-15T07:52:54;17.70;;;12.80;;
10232;SDS011;5161;48.174;11.756;2023-02-15T07:55:19;14.20;;;11.43;;
10232;SDS011;5161;48.174;11.756;2023-02-15T07:57:46;16.33;;;12.03;;
10232;SDS011;5161;48.174;11.756;2023-02-15T08:00:14;13.80;;;11.10;;
10232;SDS011;5161;48.174;11.756;2023-02-15T08:02:41;15.20;;;11.80;;
10232;SDS011;5161;48.174;11.756;2023-02-15T08:05:07;14.63;;;11.80;;
10232;SDS011;5161;48.174;11.756;2023-02-15T08:07:33;17.40;;;11.53;;
10232;SDS011;5161;48.174;11.756;2023-02-15T08:09:59;33.70;;;12.07;;
10232;SDS011;5161;48.174;11.756;2023-02-15T08:12:27;14.73;;;11.53;;
10232;SDS011;5161;48.174;11.756;2023-02-15T08:14:54;13.93;;;11.33;;
10232;SDS011;5161;48.174;11.756;2023-02-15T08:17:19;16.00;;;12.10;;
10232;SDS011;5161;48.174;11.756;2023-02-15T08:19:45;14.73;;;11.40;;
10232;SDS011;5161;48.174;11.756;2023-02-15T08:22:12;17.13;;;11.93;;
10232;SDS011;5161;48.174;11.756;2023-02-15T08:24:39;17.97;;;12.27;;
10232;SDS011;5161;48.174;11.756;2023-02-15T08:27:06;15.27;;;12.17;;
10232;SDS011;5161;48.174;11.756;2023-02-15T08:29:34;16.97;;;11.83;;
10232;SDS011;5161;48.174;11.756;2023-02-15T08:32:03;15.07;;;11.40;;
10232;SDS011;5161;48.174;11.756;2023-02-15T08:34:33;19.97;;;11.80;;
10232;SDS011;5161;48.174;11.756;2023-02-15T08:37:02;25.23;;;12.93;;
10232;SDS011;5161;48.174;11.756;2023-02-15T08:39:29;23.63;;;12.17;;
10232;SDS011;5161;48.174;11.756;2023-02-15T08:41:54;18.87;;;11.83;;
10232;SDS011;5161;48.174;11.756;2023-02-15T08:44:20;14.87;;;12.57;;
10232;SDS011;5161;48.174;11.756;2023-02-15T08:46:47;17.40;;;12.83;;
10232;SDS011;5161;48.174;11.756;2023-02-15T08:49:15;17.67;;;13.13;;
10232;SDS011;5161;48.174;11.756;2023-02-15T08:51:43;21.43;;;13.10;;
10232;SDS011;5161;48.174;11.756;2023-02-15T08:54:11;18.70;;;14.07;;
10232;SDS011;5161;48.174;11.756;2023-02-15T08:56:40;22.10;;;14.20;;
10232;SDS011;5161;48.174;11.756;2023-02-15T08:59:07;23.83;;;14.83;;
10232;SDS011;5161;48.174;11.756;2023-02-15T09:01:41;20.43;;;14.13;;
10232;SDS011;5161;48.174;11.756;2023-02-15T09:04:07;22.40;;;14.83;;
10232;SDS011;5161;48.174;11.756;2023-02-15T09:06:34;25.27;;;15.43;;
10232;SDS011;5161;48.174;11.756;2023-02-15T09:09:00;21.10;;;14.33;;
10232;SDS011;5161;48.174;11.756;2023-02-15T09:11:27;18.33;;;13.60;;
10232;SDS011;5161;48.174;11.756;2023-02-15T09:13:55;19.27;;;14.27;;
10232;SDS011;5161;48.174;11.756;2023-02-15T09:16:22;17.97;;;14.17;;
10232;SDS011;5161;48.174;11.756;2023-02-15T09:18:50;18.10;;;14.27;;
10232;SDS011;5161;48.174;11.756;2023-02-15T09:21:17;22.60;;;14.00;;
10232;SDS011;5161;48.174;11.756;2023-02-15T09:23:46;18.80;;;14.20;;
10232;SDS011;5161;48.174;11.756;2023-02-15T09:26:18;20.33;;;13.80;;
10232;SDS011;5161;48.174;11.756;2023-02-15T09:28:45;20.50;;;14.27;;
10232;SDS011;5161;48.174;11.756;2023-02-15T09:31:20;18.83;;;13.57;;
10232;SDS011;5161;48.174;11.756;2023-02-15T09:33:47;17.47;;;14.07;;
10232;SDS011;5161;48.174;11.756;2023-02-15T09:38:43;20.57;;;14.47;;
10232;SDS011;5161;48.174;11.756;2023-02-15T09:49:11;19.23;;;14.47;;
10232;SDS011;5161;48.174;11.756;2023-02-15T09:51:54;17.97;;;13.93;;
10232;SDS011;5161;48.174;11.756;2023-02-15T09:54:30;17.63;;;13.33;;
10232;SDS011;5161;48.174;11.756;2023-02-15T09:57:13;18.60;;;13.80;;
10232;SDS011;5161;48.174;11.756;2023-02-15T10:14:15;19.63;;;13.80;;
10232;SDS011;5161;48.174;11.756;2023-02-15T10:28:06;18.90;;;14.63;;
10232;SDS011;5161;48.174;11.756;2023-02-15T10:30:50;20.40;;;14.10;;
10232;SDS011;5161;48.174;11.756;2023-02-15T10:38:44;22.17;;;14.87;;
10232;SDS011;5161;48.174;11.756;2023-02-15T10:41:37;19.50;;;13.83;;
10232;SDS011;5161;48.174;11.756;2023-02-15T10:50:13;17.67;;;14.33;;
10232;SDS011;5161;48.174;11.756;2023-02-15T10:55:40;18.63;;;14.50;;
10232;SDS011;5161;48.174;11.756;2023-02-15T11:04:09;18.67;;;14.27;;
10232;SDS011;5161;48.174;11.756;2023-02-15T11:06:59;17.30;;;14.17;;
10232;SDS011;5161;48.174;11.756;2023-02-15T11:09:36;16.87;;;13.47;;
10232;SDS011;5161;48.174;11.756;2023-02-15T11:12:07;23.87;;;16.90;;
10232;SDS011;5161;48.174;11.756;2023-02-15T11:14:40;21.77;;;17.10;;
10232;SDS011;5161;48.174;11.756;2023-02-15T11:17:18;25.17;;;18.57;;
10232;SDS011;5161;48.174;11.756;2023-02-15T11:20:08;23.47;;;17.57;;
10232;SDS011;5161;48.174;11.756;2023-02-15T11:22:43;19.83;;;15.93;;
10232;SDS011;5161;48.174;11.756;2023-02-15T11:25:47;20.20;;;15.63;;
10232;SDS011;5161;48.174;11.756;2023-02-15T11:28:05;20.50;;;15.50;;
10232;SDS011;5161;48.174;11.756;2023-02-15T11:30:44;19.70;;;14.87;;
10232;SDS011;5161;48.174;11.756;2023-02-15T11:33:17;16.43;;;13.90;;
10232;SDS011;5161;48.174;11.756;2023-02-15T11:38:20;18.53;;;13.93;;
10232;SDS011;5161;48.174;11.756;2023-02-15T11:41:11;18.30;;;14.80;;
10232;SDS011;5161;48.174;11.756;2023-02-15T11:46:20;21.53;;;15.43;;
10232;SDS011;5161;48.174;11.756;2023-02-15T11:48:46;17.97;;;14.70;;
10232;SDS011;5161;48.174;11.756;2023-02-15T11:51:13;19.63;;;14.60;;
10232;SDS011;5161;48.174;11.756;2023-02-15T11:53:42;20.97;;;16.10;;
10232;SDS011;5161;48.174;11.756;2023-02-15T11:56:16;19.63;;;14.37;;
10232;SDS011;5161;48.174;11.756;2023-02-15T11:58:44;17.23;;;13.50;;
10232;SDS011;5161;48.174;11.756;2023-02-15T12:07:01;18.43;;;14.83;;
10232;SDS011;5161;48.174;11.756;2023-02-15T12:09:59;16.63;;;14.13;;
10232;SDS011;5161;48.174;11.756;2023-02-15T12:12:37;19.70;;;16.03;;
10232;SDS011;5161;48.174;11.756;2023-02-15T12:15:06;17.73;;;15.23;;
10232;SDS011;5161;48.174;11.756;2023-02-15T12:20:48;17.10;;;13.70;;
10232;SDS011;5161;48.174;11.756;2023-02-15T12:23:12;16.97;;;13.17;;
10232;SDS011;5161;48.174;11.756;2023-02-15T12:25:40;15.67;;;13.93;;
10232;SDS011;5161;48.174;11.756;2023-02-15T12:31:03;15.43;;;13.83;;
10232;SDS011;5161;48.174;11.756;2023-02-15T12:33:49;16.90;;;14.57;;
10232;SDS011;5161;48.174;11.756;2023-02-15T12:36:19;16.07;;;14.33;;
10232;SDS011;5161;48.174;11.756;2023-02-15T12:39:03;17.40;;;14.33;;
10232;SDS011;5161;48.174;11.756;2023-02-15T12:41:29;18.10;;;15.23;;
10232;SDS011;5161;48.174;11.756;2023-02-15T12:47:17;22.77;;;16.90;;
10232;SDS011;5161;48.174;11.756;2023-02-15T12:49:44;17.50;;;15.57;;
10232;SDS011;5161;48.174;11.756;2023-02-15T12:52:29;17.90;;;15.63;;
10232;SDS011;5161;48.174;11.756;2023-02-15T12:55:09;17.50;;;15.10;;
10232;SDS011;5161;48.174;11.756;2023-02-15T12:57:46;18.57;;;16.40;;
10232;SDS011;5161;48.174;11.756;2023-02-15T13:02:47;18.00;;;15.90;;
10232;SDS011;5161;48.174;11.756;2023-02-15T13:05:18;20.87;;;15.87;;
10232;SDS011;5161;48.174;11.756;2023-02-15T13:13:23;19.23;;;15.00;;
10232;SDS011;5161;48.174;11.756;2023-02-15T13:15:52;16.67;;;14.73;;
10232;SDS011;5161;48.174;11.756;2023-02-15T13:18:31;17.70;;;14.63;;
10232;SDS011;5161;48.174;11.756;2023-02-15T13:21:12;16.50;;;14.73;;
10232;SDS011;5161;48.174;11.756;2023-02-15T13:23:55;18.50;;;15.67;;
10232;SDS011;5161;48.174;11.756;2023-02-15T13:26:25;16.40;;;14.70;;
10232;SDS011;5161;48.174;11.756;2023-02-15T13:28:58;20.17;;;15.57;;
10232;SDS011;5161;48.174;11.756;2023-02-15T13:31:30;17.27;;;15.40;;
10232;SDS011;5161;48.174;11.756;2023-02-15T13:36:44;16.83;;;15.13;;
10232;SDS011;5161;48.174;11.756;2023-02-15T13:39:42;17.40;;;15.43;;
10232;SDS011;5161;48.174;11.756;2023-02-15T13:42:30;18.60;;;16.70;;
10232;SDS011;5161;48.174;11.756;2023-02-15T14:03:01;19.33;;;15.83;;
10232;SDS011;5161;48.174;11.756;2023-02-15T14:05:35;18.43;;;15.90;;
10232;SDS011;5161;48.174;11.756;2023-02-15T14:11:16;18.33;;;16.00;;
10232;SDS011;5161;48.174;11.756;2023-02-15T14:14:00;17.70;;;15.53;;
10232;SDS011;5161;48.174;11.756;2023-02-15T14:19:29;16.50;;;14.80;;
10232;SDS011;5161;48.174;11.756;2023-02-15T14:24:49;18.13;;;15.37;;
10232;SDS011;5161;48.174;11.756;2023-02-15T14:30:49;22.00;;;16.23;;
10232;SDS011;5161;48.174;11.756;2023-02-15T14:33:29;21.03;;;16.63;;
10232;SDS011;5161;48.174;11.756;2023-02-15T14:36:03;19.10;;;17.10;;
10232;SDS011;5161;48.174;11.756;2023-02-15T14:38:50;19.40;;;17.23;;
10232;SDS011;5161;48.174;11.756;2023-02-15T14:41:43;20.50;;;17.03;;
10232;SDS011;5161;48.174;11.756;2023-02-15T14:49:46;19.27;;;17.27;;
10232;SDS011;5161;48.174;11.756;2023-02-15T14:52:12;21.27;;;18.50;;
10232;SDS011;5161;48.174;11.756;2023-02-15T15:01:58;22.27;;;18.37;;
10232;SDS011;5161;48.174;11.756;2023-02-15T15:04:36;20.20;;;17.73;;
10232;SDS011;5161;48.174;11.756;2023-02-15T15:09:48;43.90;;;35.03;;
10232;SDS011;5161;48.174;11.756;2023-02-15T15:14:50;31.23;;;25.77;;
10232;SDS011;5161;48.174;11.756;2023-02-15T15:20:12;33.40;;;27.53;;
10232;SDS011;5161;48.174;11.756;2023-02-15T15:22:39;24.27;;;21.43;;
10232;SDS011;5161;48.174;11.756;2023-02-15T15:25:12;22.43;;;19.50;;
10232;SDS011;5161;48.174;11.756;2023-02-15T15:28:05;25.37;;;21.20;;
10232;SDS011;5161;48.174;11.756;2023-02-15T15:44:40;24.37;;;20.30;;
10232;SDS011;5161;48.174;11.756;2023-02-15T15:50:04;23.40;;;20.87;;
10232;SDS011;5161;48.174;11.756;2023-02-15T15:52:38;24.87;;;19.93;;
10232;SDS011;5161;48.174;11.756;2023-02-15T15:55:05;25.37;;;21.07;;
10232;SDS011;5161;48.174;11.756;2023-02-15T15:57:42;24.83;;;21.03;;
10232;SDS011;5161;48.174;11.756;2023-02-15T16:03:02;26.63;;;21.33;;
10232;SDS011;5161;48.174;11.756;2023-02-15T16:05:34;25.43;;;20.63;;
10232;SDS011;5161;48.174;11.756;2023-02-15T16:08:01;23.43;;;19.60;;
10232;SDS011;5161;48.174;11.756;2023-02-15T16:10:28;24.90;;;21.07;;
10232;SDS011;5161;48.174;11.756;2023-02-15T16:12:58;25.20;;;20.40;;
10232;SDS011;5161;48.174;11.756;2023-02-15T16:15:25;24.17;;;20.23;;
10232;SDS011;5161;48.174;11.756;2023-02-15T16:18:15;25.07;;;20.40;;
10232;SDS011;5161;48.174;11.756;2023-02-15T16:20:42;24.87;;;20.90;;
10232;SDS011;5161;48.174;11.756;2023-02-15T16:24:08;26.57;;;20.80;;
10232;SDS011;5161;48.174;11.756;2023-02-15T16:26:43;27.87;;;21.47;;
10232;SDS011;5161;48.174;11.756;2023-02-15T16:29:32;26.10;;;21.23;;
10232;SDS011;5161;48.174;11.756;2023-02-15T16:32:02;26.57;;;21.40;;
10232;SDS011;5161;48.174;11.756;2023-02-15T16:37:22;27.27;;;21.67;;
10232;SDS011;5161;48.174;11.756;2023-02-15T16:39:53;27.00;;;21.30;;
10232;SDS011;5161;48.174;11.756;2023-02-15T16:42:20;25.80;;;20.80;;
10232;SDS011;5161;48.174;11.756;2023-02-15T16:44:49;24.87;;;19.80;;
10232;SDS011;5161;48.174;11.756;2023-02-15T16:47:30;23.50;;;19.47;;
10232;SDS011;5161;48.174;11.756;2023-02-15T16:50:01;24.83;;;19.80;;
10232;SDS011;5161;48.174;11.756;2023-02-15T16:52:29;23.27;;;19.10;;
10232;SDS011;5161;48.174;11.756;2023-02-15T16:54:56;23.60;;;19.43;;
10232;SDS011;5161;48.174;11.756;2023-02-15T16:57:31;25.17;;;20.00;;
10232;SDS011;5161;48.174;11.756;2023-02-15T17:00:03;25.33;;;20.10;;
10232;SDS011;5161;48.174;11.756;2023-02-15T17:02:31;26.17;;;20.67;;
10232;SDS011;5161;48.174;11.756;2023-02-15T17:10:40;27.97;;;21.83;;
10232;SDS011;5161;48.174;11.756;2023-02-15T17:13:16;29.77;;;21.90;;
10232;SDS011;5161;48.174;11.756;2023-02-15T17:15:43;28.70;;;21.33;;
10232;SDS011;5161;48.174;11.756;2023-02-15T17:18:30;55.50;;;21.27;;
10232;SDS011;5161;48.174;11.756;2023-02-15T17:21:12;34.33;;;21.17;;
10232;SDS011;5161;48.174;11.756;2023-02-15T17:23:43;28.93;;;22.60;;
10232;SDS011;5161;48.174;11.756;2023-02-15T17:26:18;36.80;;;20.80;;
10232;SDS011;5161;48.174;11.756;2023-02-15T17:29:20;52.57;;;20.07;;
10232;SDS011;5161;48.174;11.756;2023-02-15T17:31:48;27.70;;;20.93;;
10232;SDS011;5161;48.174;11.756;2023-02-15T17:37:27;85.93;;;52.90;;
10232;SDS011;5161;48.174;11.756;2023-02-15T17:39:54;81.10;;;47.70;;
10232;SDS011;5161;48.174;11.756;2023-02-15T17:42:20;51.87;;;28.73;;
10232;SDS011;5161;48.174;11.756;2023-02-15T17:44:45;29.43;;;21.03;;
10232;SDS011;5161;48.174;11.756;2023-02-15T17:47:15;47.67;;;19.47;;
10232;SDS011;5161;48.174;11.756;2023-02-15T17:49:43;25.27;;;19.00;;
10232;SDS011;5161;48.174;11.756;2023-02-15T17:52:12;23.47;;;18.33;;
10232;SDS011;5161;48.174;11.756;2023-02-15T17:54:41;41.57;;;18.93;;
10232;SDS011;5161;48.174;11.756;2023-02-15T17:57:25;44.53;;;19.57;;
10232;SDS011;5161;48.174;11.756;2023-02-15T17:59:52;26.33;;;18.67;;
10232;SDS011;5161;48.174;11.756;2023-02-15T18:02:37;171.10;;;21.00;;
10232;SDS011;5161;48.174;11.756;2023-02-15T18:05:21;29.50;;;18.10;;
10232;SDS011;5161;48.174;11.756;2023-02-15T18:08:12;29.67;;;18.47;;
10232;SDS011;5161;48.174;11.756;2023-02-15T18:10:58;60.60;;;19.70;;
10232;SDS011;5161;48.174;11.756;2023-02-15T18:13:43;23.63;;;16.80;;